sensor_id;sensor_type;location;lat;lon;timestamp;pressure;altitude;pressure_sealevel;temperature;humidity
70968;BME280;58629;48.808;8.820;2023-11-19T00:01:52;97005.66;;;7.19;100.00
70968;BME280;58629;48.808;8.820;2023-11-19T00:04:18;97004.09;;;7.28;100.00
70968;BME280;58629;48.808;8.820;2023-11-19T00:06:44;96991.97;;;7.38;100.00
70968;BME280;58629;48.808;8.820;2023-11-19T00:09:09;96991.09;;;7.51;100.00
70968;BME280;58629;48.808;8.820;2023-11-19T00:11:35;96987.94;;;7.70;100.00
70968;BME280;58629;48.808;8.820;2023-11-19T00:14:01;96994.63;;;7.82;100.00
70968;BME280;58629;48.808;8.820;2023-11-19T00:16:26;96994.56;;;7.85;100.00
70968;BME280;58629;48.808;8.820;2023-11-19T00:18:52;96998.28;;;7.92;100.00
70968;BME280;58629;48.808;8.820;2023-11-19T00:21:17;96994.06;;;8.01;100.00
70968;BME280;58629;48.808;8.820;2023-11-19T00:23:42;96986.44;;;8.07;100.00
70968;BME280;58629;48.808;8.820;2023-11-19T00:26:08;96979.25;;;8.11;100.00
70968;BME280;58629;48.808;8.820;2023-11-19T00:28:33;96972.09;;;8.11;100.00
70968;BME280;58629;48.808;8.820;2023-11-19T00:30:59;96981.47;;;8.16;100.00
70968;BME280;58629;48.808;8.820;2023-11-19T00:33:24;96984.06;;;8.19;100.00
70968;BME280;58629;48.808;8.820;2023-11-19T00:35:50;96974.63;;;8.22;100.00
70968;BME280;58629;48.808;8.820;2023-11-19T00:38:15;96978.41;;;8.21;100.00
70968;BME280;58629;48.808;8.820;2023-11-19T00:40:40;96967.06;;;8.24;100.00
70968;BME280;58629;48.808;8.820;2023-11-19T00:43:06;96959.91;;;8.28;100.00
70968;BME280;58629;48.808;8.820;2023-11-19T00:45:32;96961.03;;;8.27;100.00
70968;BME280;58629;48.808;8.820;2023-11-19T00:47:58;96967.41;;;8.29;100.00
70968;BME280;58629;48.808;8.820;2023-11-19T00:50:24;96957.22;;;8.31;100.00
70968;BME280;58629;48.808;8.820;2023-11-19T00:52:50;96957.97;;;8.32;100.00
70968;BME280;58629;48.808;8.820;2023-11-19T00:55:15;96960.97;;;8.34;100.00
70968;BME280;58629;48.808;8.820;2023-11-19T00:57:40;96953.00;;;8.37;100.00
70968;BME280;58629;48.808;8.820;2023-11-19T01:00:06;96956.03;;;8.36;100.00
70968;BME280;58629;48.808;8.820;2023-11-19T01:02:40;96951.13;;;8.34;100.00
70968;BME280;58629;48.808;8.820;2023-11-19T01:05:08;96949.25;;;8.35;100.00
70968;BME280;58629;48.808;8.820;2023-11-19T01:07:33;96953.78;;;8.34;100.00
70968;BME280;58629;48.808;8.820;2023-11-19T01:09:58;96948.91;;;8.33;100.00
70968;BME280;58629;48.808;8.820;2023-11-19T01:12:24;96952.28;;;8.33;100.00
70968;BME280;58629;48.808;8.820;2023-11-19T01:14:49;96946.25;;;8.33;100.00
70968;BME280;58629;48.808;8.820;2023-11-19T01:17:15;96939.09;;;8.33;100.00
70968;BME280;58629;48.808;8.820;2023-11-19T01:19:41;96943.63;;;8.33;100.00
70968;BME280;58629;48.808;8.820;2023-11-19T01:22:06;96944.03;;;8.31;100.00
70968;BME280;58629;48.808;8.820;2023-11-19T01:24:32;96940.22;;;8.32;100.00
70968;BME280;58629;48.808;8.820;2023-11-19T01:26:57;96937.22;;;8.34;100.00
70968;BME280;58629;48.808;8.820;2023-11-19T01:29:24;96940.19;;;8.36;100.00
70968;BME280;58629;48.808;8.820;2023-11-19T01:31:50;96933.72;;;8.40;100.00
70968;BME280;58629;48.808;8.820;2023-11-19T01:34:16;96934.81;;;8.43;100.00
70968;BME280;58629;48.808;8.820;2023-11-19T01:36:41;96940.09;;;8.43;100.00
70968;BME280;58629;48.808;8.820;2023-11-19T01:39:07;96937.78;;;8.48;100.00
70968;BME280;58629;48.808;8.820;2023-11-19T01:41:35;96943.41;;;8.50;100.00
70968;BME280;58629;48.808;8.820;2023-11-19T01:44:01;96933.91;;;8.56;100.00
70968;BME280;58629;48.808;8.820;2023-11-19T01:46:27;96938.78;;;8.58;100.00
70968;BME280;58629;48.808;8.820;2023-11-19T01:48:53;96939.53;;;8.58;100.00
70968;BME280;58629;48.808;8.820;2023-11-19T01:51:19;96936.88;;;8.58;100.00
70968;BME280;58629;48.808;8.820;2023-11-19T01:53:45;96943.31;;;8.57;100.00
70968;BME280;58629;48.808;8.820;2023-11-19T01:56:13;96932.38;;;8.59;100.00
70968;BME280;58629;48.808;8.820;2023-11-19T01:58:40;96926.69;;;8.60;100.00
70968;BME280;58629;48.808;8.820;2023-11-19T02:01:07;96929.66;;;8.62;100.00
70968;BME280;58629;48.808;8.820;2023-11-19T02:03:33;96922.91;;;8.61;100.00
70968;BME280;58629;48.808;8.820;2023-11-19T02:05:59;96927.78;;;8.63;100.00
70968;BME280;58629;48.808;8.820;2023-11-19T02:08:24;96921.00;;;8.62;100.00
70968;BME280;58629;48.808;8.820;2023-11-19T02:10:51;96925.56;;;8.61;100.00
70968;BME280;58629;48.808;8.820;2023-11-19T02:13:17;96926.19;;;8.69;100.00
70968;BME280;58629;48.808;8.820;2023-11-19T02:15:42;96925.44;;;8.68;100.00
70968;BME280;58629;48.808;8.820;2023-11-19T02:18:22;96917.53;;;8.68;100.00
70968;BME280;58629;48.808;8.820;2023-11-19T02:20:51;96914.13;;;8.68;100.00
70968;BME280;58629;48.808;8.820;2023-11-19T02:23:18;96909.19;;;8.70;100.00
70968;BME280;58629;48.808;8.820;2023-11-19T02:28:31;96904.31;;;8.68;100.00
70968;BME280;58629;48.808;8.820;2023-11-19T02:30:58;96898.28;;;8.68;100.00
70968;BME280;58629;48.808;8.820;2023-11-19T02:33:23;96907.03;;;8.65;100.00
70968;BME280;58629;48.808;8.820;2023-11-19T02:35:49;96907.03;;;8.65;100.00
70968;BME280;58629;48.808;8.820;2023-11-19T02:38:16;96900.22;;;8.64;100.00
70968;BME280;58629;48.808;8.820;2023-11-19T02:40:41;96915.69;;;8.65;100.00
70968;BME280;58629;48.808;8.820;2023-11-19T02:43:06;96915.69;;;8.65;100.00
70968;BME280;58629;48.808;8.820;2023-11-19T02:45:33;96908.13;;;8.67;100.00
70968;BME280;58629;48.808;8.820;2023-11-19T02:47:59;96908.78;;;8.71;100.00
70968;BME280;58629;48.808;8.820;2023-11-19T02:50:26;96907.59;;;8.76;100.00
70968;BME280;58629;48.808;8.820;2023-11-19T02:52:55;96902.28;;;8.80;100.00
70968;BME280;58629;48.808;8.820;2023-11-19T02:55:24;96896.63;;;8.77;100.00
70968;BME280;58629;48.808;8.820;2023-11-19T02:57:50;96915.13;;;8.77;100.00
70968;BME280;58629;48.808;8.820;2023-11-19T03:00:19;96910.94;;;8.80;100.00
70968;BME280;58629;48.808;8.820;2023-11-19T03:02:49;96914.28;;;8.84;100.00
70968;BME280;58629;48.808;8.820;2023-11-19T03:05:23;96917.22;;;8.90;100.00
70968;BME280;58629;48.808;8.820;2023-11-19T03:07:49;96919.13;;;8.89;100.00
70968;BME280;58629;48.808;8.820;2023-11-19T03:10:14;96917.63;;;8.88;100.00
70968;BME280;58629;48.808;8.820;2023-11-19T03:12:44;96907.69;;;8.96;100.00
70968;BME280;58629;48.808;8.820;2023-11-19T03:15:10;96903.50;;;8.98;100.00
70968;BME280;58629;48.808;8.820;2023-11-19T03:17:38;96909.16;;;9.00;100.00
70968;BME280;58629;48.808;8.820;2023-11-19T03:20:08;96902.94;;;9.10;100.00
70968;BME280;58629;48.808;8.820;2023-11-19T03:22:43;96906.00;;;9.09;100.00
70968;BME280;58629;48.808;8.820;2023-11-19T03:25:09;96894.63;;;9.12;100.00
70968;BME280;58629;48.808;8.820;2023-11-19T03:27:38;96893.06;;;9.14;100.00
70968;BME280;58629;48.808;8.820;2023-11-19T03:30:07;96884.00;;;9.15;100.00
70968;BME280;58629;48.808;8.820;2023-11-19T03:32:34;96903.66;;;9.14;100.00
70968;BME280;58629;48.808;8.820;2023-11-19T03:35:01;96899.91;;;9.12;100.00
70968;BME280;58629;48.808;8.820;2023-11-19T03:37:27;96896.84;;;9.13;100.00
70968;BME280;58629;48.808;8.820;2023-11-19T03:39:56;96894.22;;;9.13;100.00
70968;BME280;58629;48.808;8.820;2023-11-19T03:42:27;96890.03;;;9.16;100.00
70968;BME280;58629;48.808;8.820;2023-11-19T03:44:53;96892.66;;;9.16;100.00
70968;BME280;58629;48.808;8.820;2023-11-19T03:47:19;96890.44;;;9.14;100.00
70968;BME280;58629;48.808;8.820;2023-11-19T03:49:48;96871.94;;;9.14;100.00
70968;BME280;58629;48.808;8.820;2023-11-19T03:52:14;96876.81;;;9.16;100.00
70968;BME280;58629;48.808;8.820;2023-11-19T03:54:40;96874.94;;;9.16;100.00
70968;BME280;58629;48.808;8.820;2023-11-19T03:57:05;96872.28;;;9.16;100.00
70968;BME280;58629;48.808;8.820;2023-11-19T03:59:30;96880.63;;;9.15;100.00
70968;BME280;58629;48.808;8.820;2023-11-19T04:01:56;96877.84;;;9.22;100.00
70968;BME280;58629;48.808;8.820;2023-11-19T04:04:22;96882.38;;;9.21;100.00
70968;BME280;58629;48.808;8.820;2023-11-19T04:06:48;96878.25;;;9.20;100.00
70968;BME280;58629;48.808;8.820;2023-11-19T04:09:13;96887.28;;;9.23;100.00
70968;BME280;58629;48.808;8.820;2023-11-19T04:11:39;96893.63;;;9.25;100.00
70968;BME280;58629;48.808;8.820;2023-11-19T04:14:05;96884.09;;;9.31;100.00
70968;BME280;58629;48.808;8.820;2023-11-19T04:16:30;96888.13;;;9.39;100.00
70968;BME280;58629;48.808;8.820;2023-11-19T04:18:55;96883.88;;;9.45;100.00
70968;BME280;58629;48.808;8.820;2023-11-19T04:21:21;96890.66;;;9.46;100.00
70968;BME280;58629;48.808;8.820;2023-11-19T04:23:48;96873.56;;;9.51;100.00
70968;BME280;58629;48.808;8.820;2023-11-19T04:26:13;96887.03;;;9.60;100.00
70968;BME280;58629;48.808;8.820;2023-11-19T04:28:39;96887.16;;;9.73;100.00
70968;BME280;58629;48.808;8.820;2023-11-19T04:31:04;96888.50;;;9.81;100.00
70968;BME280;58629;48.808;8.820;2023-11-19T04:33:31;96892.88;;;9.91;100.00
70968;BME280;58629;48.808;8.820;2023-11-19T04:35:56;96887.91;;;9.93;100.00
70968;BME280;58629;48.808;8.820;2023-11-19T04:38:21;96888.59;;;9.97;100.00
70968;BME280;58629;48.808;8.820;2023-11-19T04:40:47;96888.94;;;9.99;100.00
70968;BME280;58629;48.808;8.820;2023-11-19T04:43:12;96883.97;;;10.01;100.00
70968;BME280;58629;48.808;8.820;2023-11-19T04:45:38;96888.34;;;10.11;100.00
70968;BME280;58629;48.808;8.820;2023-11-19T04:48:05;96889.84;;;10.12;100.00
70968;BME280;58629;48.808;8.820;2023-11-19T04:50:30;96895.50;;;10.14;100.00
70968;BME280;58629;48.808;8.820;2023-11-19T04:52:56;96907.75;;;10.24;100.00
70968;BME280;58629;48.808;8.820;2023-11-19T04:55:21;96899.75;;;10.27;100.00
70968;BME280;58629;48.808;8.820;2023-11-19T04:57:47;96893.22;;;10.32;100.00
70968;BME280;58629;48.808;8.820;2023-11-19T05:00:13;96891.66;;;10.34;100.00
70968;BME280;58629;48.808;8.820;2023-11-19T05:02:38;96889.34;;;10.36;100.00
70968;BME280;58629;48.808;8.820;2023-11-19T05:05:04;96892.91;;;10.46;100.00
70968;BME280;58629;48.808;8.820;2023-11-19T05:07:30;96892.09;;;10.49;100.00
70968;BME280;58629;48.808;8.820;2023-11-19T05:09:55;96890.56;;;10.52;100.00
70968;BME280;58629;48.808;8.820;2023-11-19T05:12:20;96887.06;;;10.55;100.00
70968;BME280;58629;48.808;8.820;2023-11-19T05:14:46;96890.56;;;10.52;100.00
70968;BME280;58629;48.808;8.820;2023-11-19T05:17:15;96894.22;;;10.58;100.00
70968;BME280;58629;48.808;8.820;2023-11-19T05:19:40;96901.31;;;10.61;100.00
70968;BME280;58629;48.808;8.820;2023-11-19T05:22:06;96892.16;;;10.65;100.00
70968;BME280;58629;48.808;8.820;2023-11-19T05:24:31;96903.41;;;10.69;100.00
70968;BME280;58629;48.808;8.820;2023-11-19T05:26:57;96892.41;;;10.71;100.00
70968;BME280;58629;48.808;8.820;2023-11-19T05:29:23;96895.78;;;10.71;100.00
70968;BME280;58629;48.808;8.820;2023-11-19T05:31:49;96891.56;;;10.74;100.00
70968;BME280;58629;48.808;8.820;2023-11-19T05:34:14;96885.59;;;10.86;100.00
70968;BME280;58629;48.808;8.820;2023-11-19T05:36:40;96885.22;;;10.87;100.00
70968;BME280;58629;48.808;8.820;2023-11-19T05:39:05;96885.88;;;10.91;100.00
70968;BME280;58629;48.808;8.820;2023-11-19T05:41:31;96875.94;;;10.95;100.00
70968;BME280;58629;48.808;8.820;2023-11-19T05:43:56;96874.88;;;10.93;100.00
70968;BME280;58629;48.808;8.820;2023-11-19T05:46:21;96868.56;;;10.87;100.00
70968;BME280;58629;48.808;8.820;2023-11-19T05:48:47;96864.09;;;10.84;100.00
70968;BME280;58629;48.808;8.820;2023-11-19T05:51:12;96859.63;;;10.97;100.00
70968;BME280;58629;48.808;8.820;2023-11-19T05:53:40;96866.09;;;10.96;100.00
70968;BME280;58629;48.808;8.820;2023-11-19T05:56:05;96858.56;;;10.94;100.00
70968;BME280;58629;48.808;8.820;2023-11-19T05:58:32;96872.13;;;10.96;100.00
70968;BME280;58629;48.808;8.820;2023-11-19T06:00:58;96870.72;;;10.92;100.00
70968;BME280;58629;48.808;8.820;2023-11-19T06:03:26;96875.13;;;10.98;100.00
70968;BME280;58629;48.808;8.820;2023-11-19T06:05:52;96874.78;;;10.96;100.00
70968;BME280;58629;48.808;8.820;2023-11-19T06:08:17;96884.19;;;10.97;100.00
70968;BME280;58629;48.808;8.820;2023-11-19T06:10:44;96872.97;;;10.93;100.00
70968;BME280;58629;48.808;8.820;2023-11-19T06:13:11;96874.34;;;10.98;100.00
70968;BME280;58629;48.808;8.820;2023-11-19T06:15:36;96887.38;;;11.08;100.00
70968;BME280;58629;48.808;8.820;2023-11-19T06:18:02;96891.00;;;11.30;100.00
70968;BME280;58629;48.808;8.820;2023-11-19T06:20:29;96896.56;;;11.20;100.00
70968;BME280;58629;48.808;8.820;2023-11-19T06:22:55;96888.38;;;11.14;100.00
70968;BME280;58629;48.808;8.820;2023-11-19T06:25:21;96891.59;;;11.06;100.00
70968;BME280;58629;48.808;8.820;2023-11-19T06:27:47;96887.19;;;10.99;100.00
70968;BME280;58629;48.808;8.820;2023-11-19T06:30:12;96884.06;;;11.04;100.00
70968;BME280;58629;48.808;8.820;2023-11-19T06:32:38;96884.53;;;10.99;100.00
70968;BME280;58629;48.808;8.820;2023-11-19T06:35:03;96903.50;;;10.98;100.00
70968;BME280;58629;48.808;8.820;2023-11-19T06:37:32;96894.06;;;10.97;100.00
70968;BME280;58629;48.808;8.820;2023-11-19T06:39:57;96890.34;;;10.94;100.00
70968;BME280;58629;48.808;8.820;2023-11-19T06:42:23;96892.25;;;10.94;100.00
70968;BME280;58629;48.808;8.820;2023-11-19T06:44:48;96876.44;;;10.90;100.00
70968;BME280;58629;48.808;8.820;2023-11-19T06:47:13;96880.31;;;10.86;100.00
70968;BME280;58629;48.808;8.820;2023-11-19T06:49:39;96882.25;;;10.85;100.00
70968;BME280;58629;48.808;8.820;2023-11-19T06:52:04;96882.63;;;10.84;100.00
70968;BME280;58629;48.808;8.820;2023-11-19T06:54:30;96884.56;;;10.83;100.00
70968;BME280;58629;48.808;8.820;2023-11-19T06:56:56;96884.88;;;10.85;100.00
70968;BME280;58629;48.808;8.820;2023-11-19T06:59:22;96888.34;;;10.82;100.00
70968;BME280;58629;48.808;8.820;2023-11-19T07:01:48;96875.59;;;10.77;100.00
70968;BME280;58629;48.808;8.820;2023-11-19T07:04:13;96874.53;;;10.75;100.00
70968;BME280;58629;48.808;8.820;2023-11-19T07:06:39;96874.94;;;10.73;100.00
70968;BME280;58629;48.808;8.820;2023-11-19T07:09:06;96875.34;;;10.72;100.00
70968;BME280;58629;48.808;8.820;2023-11-19T07:11:36;96875.41;;;10.68;100.00
70968;BME280;58629;48.808;8.820;2023-11-19T07:14:02;96893.28;;;10.64;100.00
70968;BME280;58629;48.808;8.820;2023-11-19T07:16:28;96894.53;;;10.60;100.00
70968;BME280;58629;48.808;8.820;2023-11-19T07:18:53;96897.56;;;10.58;100.00
70968;BME280;58629;48.808;8.820;2023-11-19T07:21:19;96907.84;;;10.56;100.00
70968;BME280;58629;48.808;8.820;2023-11-19T07:23:45;96910.16;;;10.54;100.00
70968;BME280;58629;48.808;8.820;2023-11-19T07:26:10;96909.81;;;10.52;100.00
70968;BME280;58629;48.808;8.820;2023-11-19T07:28:36;96903.44;;;10.50;100.00
70968;BME280;58629;48.808;8.820;2023-11-19T07:31:01;96904.50;;;10.52;100.00
70968;BME280;58629;48.808;8.820;2023-11-19T07:33:27;96916.19;;;10.55;100.00
70968;BME280;58629;48.808;8.820;2023-11-19T07:35:52;96921.16;;;10.53;100.00
70968;BME280;58629;48.808;8.820;2023-11-19T07:38:17;96930.59;;;10.54;100.00
70968;BME280;58629;48.808;8.820;2023-11-19T07:40:43;96925.31;;;10.54;100.00
70968;BME280;58629;48.808;8.820;2023-11-19T07:43:08;96933.28;;;10.50;100.00
70968;BME280;58629;48.808;8.820;2023-11-19T07:45:34;96925.31;;;10.54;100.00
70968;BME280;58629;48.808;8.820;2023-11-19T07:47:59;96941.19;;;10.54;100.00
70968;BME280;58629;48.808;8.820;2023-11-19T07:50:26;96938.22;;;10.52;100.00
70968;BME280;58629;48.808;8.820;2023-11-19T07:52:51;96946.53;;;10.50;100.00
70968;BME280;58629;48.808;8.820;2023-11-19T07:55:17;96953.34;;;10.51;100.00
70968;BME280;58629;48.808;8.820;2023-11-19T07:57:42;96950.69;;;10.51;100.00
70968;BME280;58629;48.808;8.820;2023-11-19T08:00:08;96937.03;;;10.53;100.00
70968;BME280;58629;48.808;8.820;2023-11-19T08:02:37;96946.69;;;10.79;100.00
70968;BME280;58629;48.808;8.820;2023-11-19T08:05:04;96943.91;;;11.02;100.00
70968;BME280;58629;48.808;8.820;2023-11-19T08:07:29;96944.59;;;11.22;100.00
70968;BME280;58629;48.808;8.820;2023-11-19T08:09:54;96938.44;;;11.41;100.00
70968;BME280;58629;48.808;8.820;2023-11-19T08:12:19;96940.59;;;11.62;100.00
70968;BME280;58629;48.808;8.820;2023-11-19T08:14:45;96943.25;;;11.78;100.00
70968;BME280;58629;48.808;8.820;2023-11-19T08:17:10;96951.59;;;11.93;100.00
70968;BME280;58629;48.808;8.820;2023-11-19T08:19:35;96947.41;;;12.08;100.00
70968;BME280;58629;48.808;8.820;2023-11-19T08:22:01;96942.78;;;12.25;100.00
70968;BME280;58629;48.808;8.820;2023-11-19T08:24:27;96957.25;;;12.36;100.00
70968;BME280;58629;48.808;8.820;2023-11-19T08:26:53;96970.56;;;12.49;100.00
70968;BME280;58629;48.808;8.820;2023-11-19T08:29:18;96967.25;;;12.45;100.00
70968;BME280;58629;48.808;8.820;2023-11-19T08:31:44;96962.88;;;12.38;100.00
70968;BME280;58629;48.808;8.820;2023-11-19T08:34:11;96959.81;;;12.40;100.00
70968;BME280;58629;48.808;8.820;2023-11-19T08:36:37;96967.09;;;12.23;100.00
70968;BME280;58629;48.808;8.820;2023-11-19T08:39:02;96950.84;;;12.21;100.00
70968;BME280;58629;48.808;8.820;2023-11-19T08:41:28;96961.78;;;12.23;100.00
70968;BME280;58629;48.808;8.820;2023-11-19T08:43:53;96969.41;;;12.21;100.00
70968;BME280;58629;48.808;8.820;2023-11-19T08:46:19;96966.44;;;12.19;100.00
70968;BME280;58629;48.808;8.820;2023-11-19T08:48:45;96949.75;;;12.06;100.00
70968;BME280;58629;48.808;8.820;2023-11-19T08:51:11;96955.03;;;12.06;100.00
70968;BME280;58629;48.808;8.820;2023-11-19T08:53:37;96953.97;;;12.03;100.00
70968;BME280;58629;48.808;8.820;2023-11-19T08:56:02;96963.06;;;12.02;100.00
70968;BME280;58629;48.808;8.820;2023-11-19T08:58:28;96974.34;;;12.06;100.00
70968;BME280;58629;48.808;8.820;2023-11-19T09:00:54;96965.34;;;12.04;100.00
70968;BME280;58629;48.808;8.820;2023-11-19T09:03:19;96971.63;;;12.10;100.00
70968;BME280;58629;48.808;8.820;2023-11-19T09:05:45;96971.44;;;12.17;100.00
70968;BME280;58629;48.808;8.820;2023-11-19T09:08:11;96964.63;;;12.16;100.00
70968;BME280;58629;48.808;8.820;2023-11-19T09:10:37;96957.72;;;12.18;100.00
70968;BME280;58629;48.808;8.820;2023-11-19T09:13:02;96952.50;;;12.15;100.00
70968;BME280;58629;48.808;8.820;2023-11-19T09:15:29;96951.75;;;12.14;100.00
70968;BME280;58629;48.808;8.820;2023-11-19T09:17:54;96950.72;;;12.12;100.00
70968;BME280;58629;48.808;8.820;2023-11-19T09:20:20;96955.22;;;11.99;100.00
70968;BME280;58629;48.808;8.820;2023-11-19T09:22:45;96964.16;;;12.05;100.00
70968;BME280;58629;48.808;8.820;2023-11-19T09:25:11;96964.06;;;12.08;100.00
70968;BME280;58629;48.808;8.820;2023-11-19T09:27:37;96964.63;;;12.16;100.00
70968;BME280;58629;48.808;8.820;2023-11-19T09:30:03;96977.84;;;12.32;100.00
70968;BME280;58629;48.808;8.820;2023-11-19T09:32:29;96961.19;;;12.32;100.00
70968;BME280;58629;48.808;8.820;2023-11-19T09:34:54;96963.63;;;12.39;100.00
70968;BME280;58629;48.808;8.820;2023-11-19T09:37:19;96963.03;;;12.60;100.00
70968;BME280;58629;48.808;8.820;2023-11-19T09:39:45;96944.03;;;12.74;100.00
70968;BME280;58629;48.808;8.820;2023-11-19T09:42:11;96954.25;;;12.88;100.00
70968;BME280;58629;48.808;8.820;2023-11-19T09:44:42;96953.81;;;12.89;100.00
70968;BME280;58629;48.808;8.820;2023-11-19T09:47:08;96956.06;;;12.91;100.00
70968;BME280;58629;48.808;8.820;2023-11-19T09:49:35;96947.75;;;13.01;100.00
70968;BME280;58629;48.808;8.820;2023-11-19T09:52:02;96960.50;;;12.94;100.00
70968;BME280;58629;48.808;8.820;2023-11-19T09:54:28;96965.31;;;12.99;100.00
70968;BME280;58629;48.808;8.820;2023-11-19T09:56:54;96958.63;;;12.94;100.00
70968;BME280;58629;48.808;8.820;2023-11-19T09:59:24;96939.91;;;12.98;100.00
70968;BME280;58629;48.808;8.820;2023-11-19T10:01:50;96925.03;;;13.13;99.75
70968;BME280;58629;48.808;8.820;2023-11-19T10:04:17;96931.31;;;13.07;100.00
70968;BME280;58629;48.808;8.820;2023-11-19T10:06:42;96928.34;;;13.04;100.00
70968;BME280;58629;48.808;8.820;2023-11-19T10:09:08;96932.47;;;13.05;100.00
70968;BME280;58629;48.808;8.820;2023-11-19T10:11:34;96927.28;;;13.15;100.00
70968;BME280;58629;48.808;8.820;2023-11-19T10:13:59;96917.06;;;13.13;100.00
70968;BME280;58629;48.808;8.820;2023-11-19T10:16:29;96928.66;;;13.19;99.05
70968;BME280;58629;48.808;8.820;2023-11-19T10:18:57;96930.13;;;13.20;97.42
70968;BME280;58629;48.808;8.820;2023-11-19T10:21:23;96914.81;;;13.24;98.25
70968;BME280;58629;48.808;8.820;2023-11-19T10:23:51;96916.28;;;13.25;98.28
70968;BME280;58629;48.808;8.820;2023-11-19T10:26:18;96906.59;;;13.31;99.29
70968;BME280;58629;48.808;8.820;2023-11-19T10:28:45;96916.81;;;13.33;100.00
70968;BME280;58629;48.808;8.820;2023-11-19T10:31:15;96927.53;;;13.42;98.10
70968;BME280;58629;48.808;8.820;2023-11-19T10:33:42;96917.34;;;13.40;98.24
70968;BME280;58629;48.808;8.820;2023-11-19T10:36:10;96919.69;;;13.38;96.16
70968;BME280;58629;48.808;8.820;2023-11-19T10:38:37;96914.44;;;13.47;96.71
70968;BME280;58629;48.808;8.820;2023-11-19T10:41:03;96904.41;;;13.51;97.78
70968;BME280;58629;48.808;8.820;2023-11-19T10:43:30;96897.19;;;13.52;95.77
70968;BME280;58629;48.808;8.820;2023-11-19T10:46:09;96909.09;;;13.60;95.12
70968;BME280;58629;48.808;8.820;2023-11-19T10:48:36;96901.28;;;13.65;96.42
70968;BME280;58629;48.808;8.820;2023-11-19T10:51:05;96885.13;;;13.60;89.49
70968;BME280;58629;48.808;8.820;2023-11-19T10:53:35;96906.31;;;13.63;91.57
70968;BME280;58629;48.808;8.820;2023-11-19T10:56:02;96899.25;;;13.69;91.61
70968;BME280;58629;48.808;8.820;2023-11-19T10:58:32;96895.13;;;13.68;91.43
70968;BME280;58629;48.808;8.820;2023-11-19T11:01:01;96901.06;;;13.72;90.73
70968;BME280;58629;48.808;8.820;2023-11-19T11:03:37;96897.22;;;13.73;88.17
70968;BME280;58629;48.808;8.820;2023-11-19T11:06:05;96908.00;;;13.70;90.76
70968;BME280;58629;48.808;8.820;2023-11-19T11:08:31;96906.25;;;13.76;90.14
70968;BME280;58629;48.808;8.820;2023-11-19T11:10:57;96903.91;;;13.78;91.37
70968;BME280;58629;48.808;8.820;2023-11-19T11:13:24;96896.31;;;13.89;88.13
70968;BME280;58629;48.808;8.820;2023-11-19T11:15:51;96896.38;;;13.76;87.28
70968;BME280;58629;48.808;8.820;2023-11-19T11:18:17;96901.75;;;13.85;92.46
70968;BME280;58629;48.808;8.820;2023-11-19T11:20:46;96910.63;;;13.82;88.34
70968;BME280;58629;48.808;8.820;2023-11-19T11:31:38;96904.28;;;13.89;89.55
70968;BME280;58629;48.808;8.820;2023-11-19T11:34:36;96903.63;;;13.98;89.48
70968;BME280;58629;48.808;8.820;2023-11-19T11:39:34;96892.41;;;14.03;87.82
70968;BME280;58629;48.808;8.820;2023-11-19T11:50:20;96891.03;;;14.20;87.04
70968;BME280;58629;48.808;8.820;2023-11-19T11:55:26;96890.44;;;14.37;86.85
70968;BME280;58629;48.808;8.820;2023-11-19T11:57:53;96901.91;;;14.56;85.55
70968;BME280;58629;48.808;8.820;2023-11-19T12:00:39;96886.50;;;14.51;82.82
70968;BME280;58629;48.808;8.820;2023-11-19T12:03:07;96900.25;;;14.49;77.87
70968;BME280;58629;48.808;8.820;2023-11-19T12:05:33;96911.91;;;14.43;79.90
70968;BME280;58629;48.808;8.820;2023-11-19T12:08:03;96902.44;;;14.42;80.46
70968;BME280;58629;48.808;8.820;2023-11-19T12:10:31;96888.50;;;14.38;80.99
70968;BME280;58629;48.808;8.820;2023-11-19T12:13:01;96896.69;;;14.43;80.26
70968;BME280;58629;48.808;8.820;2023-11-19T12:15:27;96881.75;;;14.46;77.81
70968;BME280;58629;48.808;8.820;2023-11-19T12:17:54;96886.72;;;14.35;77.97
70968;BME280;58629;48.808;8.820;2023-11-19T12:20:25;96879.50;;;14.44;79.83
70968;BME280;58629;48.808;8.820;2023-11-19T12:22:51;96874.47;;;14.46;80.91
70968;BME280;58629;48.808;8.820;2023-11-19T12:25:17;96867.25;;;14.47;76.09
70968;BME280;58629;48.808;8.820;2023-11-19T12:27:48;96852.00;;;14.47;73.94
70968;BME280;58629;48.808;8.820;2023-11-19T12:30:17;96859.25;;;14.47;76.07
70968;BME280;58629;48.808;8.820;2023-11-19T12:32:44;96860.16;;;14.53;75.96
70968;BME280;58629;48.808;8.820;2023-11-19T12:35:11;96868.75;;;14.48;77.94
70968;BME280;58629;48.808;8.820;2023-11-19T12:37:44;96863.19;;;14.33;78.87
70968;BME280;58629;48.808;8.820;2023-11-19T12:42:48;96859.78;;;14.33;78.66
70968;BME280;58629;48.808;8.820;2023-11-19T12:45:14;96843.47;;;14.31;78.43
70968;BME280;58629;48.808;8.820;2023-11-19T12:47:40;96853.50;;;14.27;77.60
70968;BME280;58629;48.808;8.820;2023-11-19T12:50:07;96847.25;;;14.21;77.69
70968;BME280;58629;48.808;8.820;2023-11-19T12:52:34;96859.81;;;14.20;80.29
70968;BME280;58629;48.808;8.820;2023-11-19T12:54:59;96853.75;;;14.20;78.13
70968;BME280;58629;48.808;8.820;2023-11-19T12:57:41;96865.59;;;13.97;78.89
70968;BME280;58629;48.808;8.820;2023-11-19T13:00:08;96859.84;;;13.99;78.07
70968;BME280;58629;48.808;8.820;2023-11-19T13:02:49;96851.81;;;13.89;79.08
70968;BME280;58629;48.808;8.820;2023-11-19T13:10:26;96861.03;;;13.98;77.70
70968;BME280;58629;48.808;8.820;2023-11-19T13:13:08;96852.56;;;13.90;78.84
70968;BME280;58629;48.808;8.820;2023-11-19T13:15:34;96847.09;;;13.93;75.29
70968;BME280;58629;48.808;8.820;2023-11-19T13:18:00;96855.06;;;13.93;76.98
70968;BME280;58629;48.808;8.820;2023-11-19T13:20:26;96867.28;;;14.04;78.51
70968;BME280;58629;48.808;8.820;2023-11-19T13:22:59;96857.16;;;13.99;79.80
70968;BME280;58629;48.808;8.820;2023-11-19T13:25:25;96859.66;;;13.93;77.83